Daneborg

KL  EN  DA
ASIAQ
Weather Now GREENLAND SURVEY
Updated [WGT/WGST] Temperature [°C] Wind [m/s] Air pressure [hPa] Relative humidity [%] Precipitation [mm]
Present Wind chill Speed Max
02.05 14:00-6,4-9,12,0 ⇘2,0101056n/a
02.05 13:00-7,30,01,0 ⇘2,0101057n/a
02.05 12:00-8,1-11,02,0 ⇘2,0101058n/a
02.05 11:00-10,2-17,35,0 ⇓6,0101060n/a
02.05 10:00-11,60,01,0 ⇒2,0101059n/a
02.05 09:00-11,90,01,0 ⇖2,0101061n/a
02.05 08:00-12,40,01,0 ⇗2,0100958n/a
02.05 07:00-13,90,01,0 ⇑2,0100961n/a
02.05 06:00-11,8-16,42,0 ⇘3,0100953n/a
02.05 05:00-15,3-19,22,0 ⇒3,0100967n/a
02.05 04:00-10,2-16,44,0 ⇓5,0100853n/a
02.05 03:00-14,3-20,13,0 ⇓3,0100969n/a
02.05 02:00-13,6-17,32,0 ⇓2,0100966n/a
02.05 01:00-14,90,01,0 ⇐1,0100973n/a
02.05 00:00-15,50,01,0 ⇓2,0100974n/a
01.05 23:00-13,8-17,52,0 ⇓2,0100970n/a
01.05 22:00-12,70,01,0 ⇖3,0100968n/a
01.05 21:00-13,50,01,0 ⇘3,0100872n/a
01.05 20:00-8,6-12,62,0 ⇓3,0100848n/a
01.05 19:00-9,90,01,0 ⇓2,0100861n/a
01.05 18:00-8,8-12,92,0 ⇓3,0100856n/a
01.05 17:00-8,30,01,0 ⇘2,0100862n/a
01.05 16:00-9,7-14,63,0 ⇘3,0100870n/a
01.05 15:00-9,0-12,02,0 ⇓2,0100862n/a
01.05 14:00-8,9-11,92,0 ⇓2,0100856n/a
Position: (74.307500,-20.216944)

[Back]